Etusivu
METAR-TAF:

METAR-TAF

Lentoasemat :

Jim Kelly Field

Lexington, Nebraska, Yhdysvallat

Leveyspiiri: 40-47-28N, Pituuspiiri: 099-46-38W, korkeus merenpinnasta: 736 m

Tämänhetkinen sää

Tämä raportti tehtiin 50 minuuttia sitten, kello 23.15 UTC
Tuuli 5 kn pohjoisesta
Lämpötila 35°C
Kosteus 50%
Ilmanpaine 1007 hPa
Näkyvyys: 16.1 km
selkeää

METAR: KLXN 242315Z AUTO 35005KT 10SM CLR 35/23 A2973 RMK AO2 LTG DSNT SW T03490225

Aika: 19:05 (00:05 UTC)


TAF: puuttuu

Säähavainnot ja -ennusteet yli 4000 lentoasemalta (METAR- ja TAF-raportit).

Käytössä olevat sääasemat on merkitty karttaan keltaisilla ja punaisilla pisteillä.

Aseta hiiri pisteen päälle nähdäksesi sääaseman nimen.

Klikkaa sitten nähdäksesi säähavainnot ja -ennusteet.

Kartan vaihtaminen: klikkaa mustalla rastilla varustettuja vihreitä pisteitä, niin voit zoomata sisään; viivalla varustettua vihreää pistettä, niin voit zoomata ulos tai vihreitä nuolia, niin pääset viereisille kartoille.


METAR-TAF: